createdAt,value
2018-05-18T00:01:06.515Z,21.17
2018-05-18T00:03:34.131Z,23.57
2018-05-18T00:06:01.703Z,22.53
2018-05-18T00:08:29.258Z,22.03
2018-05-18T00:10:56.995Z,22.10
2018-05-18T00:13:24.647Z,23.10
2018-05-18T00:15:53.061Z,21.70
2018-05-18T00:18:20.834Z,22.47
2018-05-18T00:20:50.639Z,23.33
2018-05-18T00:23:19.095Z,23.80
2018-05-18T00:25:46.737Z,21.20
2018-05-18T00:28:14.355Z,22.60
2018-05-18T00:30:41.946Z,23.43
2018-05-18T00:33:10.449Z,23.13
2018-05-18T00:35:38.045Z,22.67
2018-05-18T00:38:06.436Z,23.50
2018-05-18T00:40:34.359Z,21.80
2018-05-18T00:43:02.099Z,22.23
2018-05-18T00:45:30.496Z,22.20
2018-05-18T00:47:59.727Z,22.77
2018-05-18T00:50:28.679Z,23.43
2018-05-18T00:52:57.664Z,22.67
2018-05-18T00:55:37.166Z,21.30
2018-05-18T00:58:04.709Z,20.60
2018-05-18T01:00:32.276Z,22.67
2018-05-18T01:02:59.835Z,23.10
2018-05-18T01:05:27.384Z,22.43
2018-05-18T01:07:54.996Z,22.73
2018-05-18T01:10:24.573Z,21.03
2018-05-18T01:12:52.986Z,21.50
2018-05-18T01:15:21.701Z,22.00
2018-05-18T01:17:49.639Z,22.00
2018-05-18T01:20:18.299Z,21.80
2018-05-18T01:22:45.944Z,22.17
2018-05-18T01:25:13.540Z,24.70
2018-05-18T01:27:41.887Z,22.00
2018-05-18T01:30:11.499Z,22.40
2018-05-18T01:32:39.077Z,25.00
2018-05-18T01:35:07.518Z,24.47
2018-05-18T01:37:35.091Z,23.50
2018-05-18T01:40:02.593Z,23.10
2018-05-18T01:42:30.529Z,21.07
2018-05-18T01:44:58.113Z,23.90
2018-05-18T01:47:26.525Z,23.10
2018-05-18T01:49:54.856Z,25.47
2018-05-18T01:52:22.686Z,24.57
2018-05-18T01:54:50.269Z,25.20
2018-05-18T01:57:17.892Z,25.10
2018-05-18T01:59:45.487Z,25.17
2018-05-18T02:02:13.142Z,24.83
2018-05-18T02:04:40.787Z,25.43
2018-05-18T02:07:08.576Z,25.60
2018-05-18T02:09:36.179Z,24.83
2018-05-18T02:12:03.824Z,25.47
2018-05-18T02:14:33.276Z,23.60
2018-05-18T02:17:00.920Z,24.63
2018-05-18T02:19:28.660Z,26.73
2018-05-18T02:21:57.183Z,24.97
2018-05-18T02:24:25.804Z,25.47
2018-05-18T02:26:54.202Z,24.90
2018-05-18T02:29:21.856Z,24.93
2018-05-18T02:31:49.412Z,23.90
2018-05-18T02:34:17.908Z,23.10
2018-05-18T02:36:45.612Z,25.67
2018-05-18T02:39:14.710Z,25.93
2018-05-18T02:41:42.381Z,26.20
2018-05-18T02:44:10.809Z,25.70
2018-05-18T02:46:38.379Z,24.13
2018-05-18T02:49:06.031Z,23.87
2018-05-18T02:51:34.329Z,25.00
2018-05-18T02:54:01.988Z,25.27
2018-05-18T02:56:29.625Z,24.10
2018-05-18T02:58:57.638Z,24.87
2018-05-18T03:01:25.239Z,25.03
2018-05-18T03:03:52.892Z,25.43
2018-05-18T03:06:21.226Z,23.40
2018-05-18T03:08:48.979Z,23.87
2018-05-18T03:11:16.612Z,23.20
2018-05-18T03:13:44.286Z,22.97
2018-05-18T03:16:12.524Z,22.80
2018-05-18T03:18:41.011Z,23.43
2018-05-18T03:21:08.758Z,21.70
2018-05-18T03:23:36.271Z,22.37
2018-05-18T03:26:04.057Z,21.93
2018-05-18T03:28:32.084Z,22.03
2018-05-18T03:30:59.824Z,21.40
2018-05-18T03:33:28.296Z,22.20
2018-05-18T03:35:56.753Z,23.93
2018-05-18T03:38:24.346Z,22.10
2018-05-18T03:40:52.349Z,22.47
2018-05-18T03:43:20.712Z,21.30
2018-05-18T03:45:48.953Z,21.27
2018-05-18T03:48:16.603Z,21.53
2018-05-18T03:50:44.955Z,24.37
2018-05-18T03:53:12.649Z,22.13
2018-05-18T03:55:40.681Z,23.53
2018-05-18T03:58:08.486Z,25.40
2018-05-18T04:00:36.945Z,24.40
2018-05-18T04:03:19.316Z,26.53
2018-05-18T04:05:59.777Z,27.03
2018-05-18T04:11:31.873Z,25.60
2018-05-18T04:13:59.588Z,25.97
2018-05-18T04:16:28.137Z,27.17
2018-05-18T04:18:55.810Z,24.20
2018-05-18T04:21:24.053Z,24.37
2018-05-18T04:23:51.795Z,24.00
2018-05-18T04:26:20.302Z,23.33
2018-05-18T04:28:48.125Z,22.50
2018-05-18T04:31:15.808Z,23.43
2018-05-18T04:33:43.338Z,23.33
2018-05-18T04:36:12.163Z,22.53
2018-05-18T04:38:39.852Z,22.50
2018-05-18T04:41:08.456Z,21.67
2018-05-18T04:43:36.236Z,21.70
2018-05-18T04:46:04.013Z,22.47
2018-05-18T04:48:31.788Z,23.83
2018-05-18T04:50:59.461Z,21.90
2018-05-18T04:53:28.406Z,20.67
2018-05-18T04:55:56.503Z,23.07
2018-05-18T04:58:24.719Z,21.93
2018-05-18T05:00:52.705Z,21.23
2018-05-18T05:03:20.331Z,22.77
2018-05-18T05:05:48.158Z,21.77
2018-05-18T05:08:16.841Z,23.73
2018-05-18T05:10:45.107Z,23.10
2018-05-18T05:13:14.739Z,22.63
2018-05-18T05:15:42.352Z,21.83
2018-05-18T05:18:10.099Z,23.20
2018-05-18T05:20:37.647Z,20.27
2018-05-18T05:23:05.312Z,22.87
2018-05-18T05:25:32.936Z,21.63
2018-05-18T05:28:00.584Z,20.27
2018-05-18T05:30:28.176Z,23.23
2018-05-18T05:32:55.875Z,20.10
2018-05-18T05:35:23.603Z,21.93
2018-05-18T05:37:51.389Z,20.27
2018-05-18T05:40:18.964Z,21.90
2018-05-18T05:42:46.625Z,22.20
2018-05-18T05:45:14.614Z,21.30
2018-05-18T05:47:42.227Z,23.13
2018-05-18T05:50:09.789Z,21.50
2018-05-18T05:52:37.520Z,21.27
2018-05-18T05:55:05.924Z,20.20
2018-05-18T05:57:33.593Z,19.50
2018-05-18T06:00:01.204Z,20.33
2018-05-18T06:02:29.718Z,20.30
2018-05-18T06:04:57.360Z,20.13
2018-05-18T06:07:25.613Z,20.47
2018-05-18T06:09:53.280Z,19.87
2018-05-18T06:12:22.654Z,18.90
2018-05-18T06:14:51.065Z,19.67
2018-05-18T06:17:18.782Z,17.87
2018-05-18T06:19:46.443Z,17.47
2018-05-18T06:22:14.042Z,19.53
2018-05-18T06:24:41.569Z,20.60
2018-05-18T06:27:09.366Z,20.10
2018-05-18T06:29:37.929Z,18.93
2018-05-18T06:32:05.634Z,20.93
2018-05-18T06:34:34.052Z,18.10
2018-05-18T06:37:01.652Z,18.83
2018-05-18T06:39:29.332Z,18.97
2018-05-18T06:41:57.823Z,17.83
2018-05-18T06:44:25.479Z,18.60
2018-05-18T06:46:53.324Z,19.23
2018-05-18T06:49:20.926Z,20.97
2018-05-18T06:51:48.541Z,23.40
2018-05-18T06:54:17.138Z,24.23
2018-05-18T06:56:44.757Z,22.27
2018-05-18T06:59:12.914Z,22.50
2018-05-18T07:01:40.689Z,23.60
2018-05-18T07:04:08.690Z,26.00
2018-05-18T07:06:36.850Z,24.77
2018-05-18T07:09:06.287Z,24.00
2018-05-18T07:11:34.822Z,22.63
2018-05-18T07:14:02.901Z,23.60
2018-05-18T07:16:31.396Z,22.97
2018-05-18T07:18:59.951Z,24.20
2018-05-18T07:21:28.323Z,23.23
2018-05-18T07:23:57.092Z,24.13
2018-05-18T07:26:25.345Z,22.93
2018-05-18T07:28:54.406Z,23.53
2018-05-18T07:31:21.948Z,22.67
2018-05-18T07:33:49.612Z,25.13
2018-05-18T07:36:17.538Z,24.40
2018-05-18T07:38:45.612Z,22.73
2018-05-18T07:41:13.603Z,23.87
2018-05-18T07:43:42.025Z,24.90
2018-05-18T07:46:09.731Z,24.43
2018-05-18T07:48:37.460Z,24.63
2018-05-18T07:51:05.798Z,23.00
2018-05-18T07:53:34.365Z,25.17
2018-05-18T07:56:02.111Z,23.13
2018-05-18T07:58:29.709Z,26.20
2018-05-18T08:00:57.845Z,23.27
2018-05-18T08:03:25.675Z,26.07
2018-05-18T08:05:54.211Z,24.23
2018-05-18T08:08:24.230Z,25.70
2018-05-18T08:10:51.999Z,23.27
2018-05-18T08:13:19.851Z,25.00
2018-05-18T08:15:47.503Z,23.60
2018-05-18T08:18:15.427Z,25.00
2018-05-18T08:20:44.117Z,24.40
2018-05-18T08:23:12.935Z,24.83
2018-05-18T08:25:40.830Z,24.37
2018-05-18T08:28:10.016Z,23.20
2018-05-18T08:30:49.282Z,23.57
2018-05-18T08:33:16.963Z,26.47
2018-05-18T08:35:45.338Z,23.67
2018-05-18T08:38:13.998Z,24.07
2018-05-18T08:40:42.950Z,23.83
2018-05-18T08:43:10.709Z,23.90
2018-05-18T08:45:38.469Z,23.33
2018-05-18T08:48:07.022Z,23.40
2018-05-18T08:50:34.594Z,24.00
2018-05-18T08:53:03.102Z,25.00
2018-05-18T08:55:31.226Z,24.93
2018-05-18T08:57:58.907Z,25.07
2018-05-18T09:00:26.684Z,25.20
2018-05-18T09:02:54.433Z,24.97
2018-05-18T09:05:21.976Z,25.53
2018-05-18T09:07:49.925Z,25.90
2018-05-18T09:10:17.708Z,29.40
2018-05-18T09:12:46.248Z,22.90
2018-05-18T09:15:14.317Z,27.50
2018-05-18T09:17:42.371Z,25.57
2018-05-18T09:20:10.859Z,26.37
2018-05-18T09:22:38.813Z,25.43
2018-05-18T09:25:07.676Z,25.60
2018-05-18T09:27:36.989Z,26.70
2018-05-18T09:30:05.891Z,25.20
2018-05-18T09:32:33.609Z,25.70
2018-05-18T09:35:01.271Z,26.00
2018-05-18T09:37:29.301Z,29.87
2018-05-18T09:39:57.026Z,25.63
2018-05-18T09:42:25.619Z,27.17
2018-05-18T09:44:53.452Z,26.47
2018-05-18T09:47:21.291Z,24.97
2018-05-18T09:49:49.094Z,26.63
2018-05-18T09:52:17.475Z,27.30
2018-05-18T09:54:46.602Z,25.90
2018-05-18T09:57:15.832Z,27.73
2018-05-18T09:59:44.298Z,28.10
2018-05-18T10:02:12.385Z,27.03
2018-05-18T10:04:40.356Z,27.37
2018-05-18T10:07:08.881Z,26.20
2018-05-18T10:09:37.951Z,26.60
2018-05-18T10:12:05.797Z,27.63
2018-05-18T10:14:33.306Z,26.33
2018-05-18T10:17:01.802Z,28.03
2018-05-18T10:19:30.251Z,28.80
2018-05-18T10:21:57.970Z,26.43
2018-05-18T10:24:25.596Z,27.13
2018-05-18T10:26:53.554Z,25.80
2018-05-18T10:29:21.326Z,26.50
2018-05-18T10:31:49.209Z,26.67
2018-05-18T10:34:17.907Z,26.40
2018-05-18T10:36:45.634Z,27.47
2018-05-18T10:39:13.548Z,27.27
2018-05-18T10:41:41.991Z,27.57
2018-05-18T10:44:09.685Z,23.57
2018-05-18T10:46:37.570Z,24.13
2018-05-18T10:49:05.416Z,24.40
2018-05-18T10:51:33.802Z,24.47
2018-05-18T10:54:01.560Z,28.33
2018-05-18T10:56:29.996Z,28.00
2018-05-18T10:58:57.769Z,25.70
2018-05-18T11:01:25.383Z,25.60
2018-05-18T11:03:53.141Z,25.80
2018-05-18T11:06:21.630Z,26.07
2018-05-18T11:08:49.265Z,25.67
2018-05-18T11:11:17.556Z,26.03
2018-05-18T11:13:46.274Z,26.13
2018-05-18T11:16:14.077Z,25.53
2018-05-18T11:18:43.609Z,24.30
2018-05-18T11:21:12.242Z,26.20
2018-05-18T11:23:40.059Z,25.43
2018-05-18T11:26:08.972Z,26.50
2018-05-18T11:28:36.967Z,25.40
2018-05-18T11:31:05.340Z,24.00
2018-05-18T11:33:32.932Z,27.37
2018-05-18T11:36:01.048Z,27.43
2018-05-18T11:38:29.222Z,25.80
2018-05-18T11:40:57.234Z,28.30
2018-05-18T11:43:27.072Z,25.10
2018-05-18T11:45:56.578Z,25.97
2018-05-18T11:48:25.057Z,26.50
2018-05-18T11:50:53.751Z,24.73
2018-05-18T11:53:22.056Z,26.00
2018-05-18T11:55:49.949Z,25.07
2018-05-18T11:58:17.642Z,24.30
2018-05-18T12:00:46.336Z,22.70
2018-05-18T12:03:15.255Z,23.00
2018-05-18T12:05:43.159Z,24.10
2018-05-18T12:08:11.066Z,21.20
2018-05-18T12:10:39.525Z,21.80
2018-05-18T12:13:08.279Z,19.07
2018-05-18T12:15:35.848Z,19.23
2018-05-18T12:18:03.576Z,18.00
2018-05-18T12:20:31.514Z,18.87
2018-05-18T12:22:59.398Z,19.10
2018-05-18T12:25:27.150Z,21.30
2018-05-18T12:27:54.859Z,18.40
2018-05-18T12:30:22.685Z,21.20
2018-05-18T12:38:40.914Z,19.87
2018-05-18T12:43:57.003Z,19.73
2018-05-18T12:46:35.607Z,17.33
2018-05-18T12:54:44.571Z,18.23
2018-05-18T12:57:15.121Z,17.90
2018-05-18T12:59:45.088Z,18.93
2018-05-18T13:02:21.373Z,18.30
2018-05-18T13:04:49.866Z,18.90
2018-05-18T13:07:36.921Z,19.87
2018-05-18T13:10:05.581Z,19.07
2018-05-18T13:12:36.270Z,19.27
2018-05-18T13:15:15.243Z,20.27
2018-05-18T13:17:46.867Z,19.20
2018-05-18T13:20:20.602Z,19.47
2018-05-18T13:22:55.017Z,19.70
2018-05-18T13:38:52.857Z,18.37
2018-05-18T13:41:24.100Z,18.77
2018-05-18T13:44:01.887Z,17.67
2018-05-18T13:46:39.645Z,18.00
2018-05-18T13:49:38.344Z,19.50
2018-05-18T13:52:08.867Z,16.50
2018-05-18T13:54:42.359Z,16.80
2018-05-18T13:57:14.956Z,15.73
2018-05-18T13:59:49.751Z,17.60
2018-05-18T14:02:32.185Z,18.30
2018-05-18T14:05:05.645Z,17.43
2018-05-18T14:07:47.838Z,17.43
2018-05-18T14:10:21.889Z,14.60
2018-05-18T14:13:01.147Z,16.73
2018-05-18T14:15:39.282Z,18.23
2018-05-18T14:21:07.836Z,15.33
2018-05-18T14:23:35.807Z,17.10
2018-05-18T14:26:12.013Z,17.23
2018-05-18T14:28:41.498Z,16.87
2018-05-18T14:31:12.450Z,16.00
2018-05-18T14:33:52.006Z,16.70
2018-05-18T14:36:21.476Z,16.00
2018-05-18T14:38:53.203Z,14.30
2018-05-18T14:41:21.615Z,15.87
2018-05-18T14:44:03.243Z,15.23
2018-05-18T14:46:36.895Z,16.87
2018-05-18T14:49:18.823Z,16.40
2018-05-18T14:51:51.642Z,15.40
2018-05-18T14:54:22.498Z,15.50
2018-05-18T14:56:56.887Z,14.70
2018-05-18T14:59:26.367Z,15.87
2018-05-18T15:01:58.744Z,14.37
2018-05-18T15:04:27.432Z,13.30
2018-05-18T15:06:55.766Z,14.13
2018-05-18T15:09:30.377Z,15.30
2018-05-18T15:12:05.382Z,15.23
2018-05-18T15:31:12.903Z,11.07
2018-05-18T15:47:54.846Z,12.83
2018-05-18T15:50:22.420Z,12.07
2018-05-18T15:52:50.063Z,10.73
2018-05-18T15:55:17.717Z,10.40
2018-05-18T15:57:45.627Z,9.80
2018-05-18T16:00:13.157Z,11.00
2018-05-18T16:02:41.907Z,10.00
2018-05-18T16:05:10.510Z,9.80
2018-05-18T16:07:38.027Z,10.63
2018-05-18T16:10:06.322Z,9.50
2018-05-18T16:12:34.131Z,9.40
2018-05-18T16:15:01.845Z,9.97
2018-05-18T16:17:31.301Z,9.50
2018-05-18T16:19:58.829Z,9.43
2018-05-18T16:22:26.357Z,9.17
2018-05-18T16:24:54.641Z,10.47
2018-05-18T16:27:22.939Z,10.23
2018-05-18T16:29:50.613Z,8.50
2018-05-18T16:32:18.138Z,9.03
2018-05-18T16:34:45.657Z,9.60
2018-05-18T16:37:13.241Z,8.53
2018-05-18T16:39:41.577Z,8.97
2018-05-18T16:42:09.097Z,9.27
2018-05-18T16:44:36.600Z,9.50
2018-05-18T16:47:04.105Z,9.07
2018-05-18T16:49:31.636Z,8.33
2018-05-18T16:51:59.225Z,9.07
2018-05-18T16:54:27.505Z,9.10
2018-05-18T16:56:55.930Z,8.47
2018-05-18T16:59:23.434Z,8.77
2018-05-18T17:01:51.723Z,8.57
2018-05-18T17:04:19.310Z,8.07
2018-05-18T17:06:46.837Z,7.87
2018-05-18T17:09:14.738Z,8.70
2018-05-18T17:11:42.669Z,7.97
2018-05-18T17:14:10.228Z,8.30
2018-05-18T17:16:38.077Z,8.87
2018-05-18T17:19:06.508Z,8.10
2018-05-18T17:21:34.029Z,8.90
2018-05-18T17:24:02.546Z,8.03
2018-05-18T17:26:30.152Z,8.93
2018-05-18T17:28:58.233Z,8.17
2018-05-18T17:31:25.838Z,7.30
2018-05-18T17:33:53.843Z,8.20
2018-05-18T17:36:21.473Z,7.33
2018-05-18T17:38:49.143Z,7.40
2018-05-18T17:41:16.851Z,6.60
2018-05-18T17:43:44.492Z,6.57
2018-05-18T17:46:12.119Z,6.73
2018-05-18T17:48:39.847Z,6.50
2018-05-18T17:51:07.824Z,8.10
2018-05-18T17:53:35.422Z,6.10
2018-05-18T17:56:03.031Z,6.90
2018-05-18T17:58:30.724Z,6.20
2018-05-18T18:00:58.316Z,7.20
2018-05-18T18:03:25.846Z,6.70
2018-05-18T18:05:53.450Z,7.20
2018-05-18T18:08:21.770Z,7.63
2018-05-18T18:10:49.549Z,7.33
2018-05-18T18:13:17.157Z,7.67
2018-05-18T18:15:45.176Z,7.50
2018-05-18T18:18:12.734Z,7.13
2018-05-18T18:20:40.247Z,7.30
2018-05-18T18:23:07.823Z,7.63
2018-05-18T18:25:35.534Z,8.13
2018-05-18T18:28:03.220Z,7.87
2018-05-18T18:30:31.039Z,6.97
2018-05-18T18:32:58.630Z,7.60
2018-05-18T18:35:27.131Z,8.73
2018-05-18T18:37:54.658Z,8.67
2018-05-18T18:40:22.988Z,6.57
2018-05-18T18:42:50.520Z,8.67
2018-05-18T18:45:18.379Z,7.97
2018-05-18T18:47:46.049Z,8.27
2018-05-18T18:50:13.623Z,8.10
2018-05-18T18:52:41.147Z,8.90
2018-05-18T18:55:08.735Z,8.23
2018-05-18T18:57:36.992Z,7.93
2018-05-18T19:00:04.502Z,8.10
2018-05-18T19:02:32.001Z,7.33
2018-05-18T19:04:59.509Z,8.73
2018-05-18T19:07:27.023Z,9.27
2018-05-18T19:09:54.535Z,8.00
2018-05-18T19:12:22.034Z,8.37
2018-05-18T19:14:49.535Z,9.13
2018-05-18T19:17:17.052Z,7.77
2018-05-18T19:19:45.410Z,9.30
2018-05-18T19:22:12.912Z,8.33
2018-05-18T19:24:40.448Z,9.00
2018-05-18T19:27:08.774Z,8.23
2018-05-18T19:29:36.286Z,7.70
2018-05-18T19:32:04.578Z,8.80
2018-05-18T19:34:32.122Z,9.23
2018-05-18T19:37:00.388Z,8.47
2018-05-18T19:39:27.882Z,8.67
2018-05-18T19:41:55.383Z,8.13
2018-05-18T19:44:22.912Z,8.43
2018-05-18T19:46:50.430Z,7.87
2018-05-18T19:49:18.691Z,8.97
2018-05-18T19:51:46.977Z,9.20
2018-05-18T19:54:15.238Z,9.27
2018-05-18T19:56:42.761Z,8.70
2018-05-18T19:59:10.285Z,10.37
2018-05-18T20:01:37.799Z,8.37
2018-05-18T20:04:05.298Z,8.80
2018-05-18T20:06:33.576Z,7.40
2018-05-18T20:09:01.139Z,8.90
2018-05-18T20:11:28.716Z,7.83
2018-05-18T20:13:56.227Z,9.00
2018-05-18T20:16:23.728Z,8.37
2018-05-18T20:18:51.244Z,8.40
2018-05-18T20:21:19.578Z,8.97
2018-05-18T20:23:47.106Z,8.67
2018-05-18T20:26:14.596Z,8.30
2018-05-18T20:28:42.085Z,8.80
2018-05-18T20:31:10.432Z,9.03
2018-05-18T20:33:37.913Z,7.73
2018-05-18T20:36:05.465Z,8.93
2018-05-18T20:38:32.979Z,9.03
2018-05-18T20:41:00.487Z,9.10
2018-05-18T20:43:27.984Z,9.43
2018-05-18T20:45:55.521Z,9.40
2018-05-18T20:48:23.815Z,8.10
2018-05-18T20:50:51.341Z,9.80
2018-05-18T20:53:18.867Z,9.57
2018-05-18T20:55:46.356Z,8.93
2018-05-18T20:58:13.864Z,9.20
2018-05-18T21:00:41.375Z,9.07
2018-05-18T21:03:08.886Z,9.53
2018-05-18T21:05:36.377Z,8.60
2018-05-18T21:08:04.683Z,9.03
2018-05-18T21:10:33.038Z,8.50
2018-05-18T21:13:00.477Z,8.93
2018-05-18T21:15:27.962Z,9.13
2018-05-18T21:17:55.473Z,9.90
2018-05-18T21:20:22.973Z,9.60
2018-05-18T21:22:50.467Z,9.57
2018-05-18T21:25:17.987Z,10.07
2018-05-18T21:27:46.275Z,10.23
2018-05-18T21:30:14.626Z,10.40
2018-05-18T21:32:42.127Z,9.70
2018-05-18T21:35:09.703Z,9.47
2018-05-18T21:37:37.218Z,10.07
2018-05-18T21:40:04.726Z,10.50
2018-05-18T21:42:32.219Z,9.73
2018-05-18T21:44:59.710Z,9.77
2018-05-18T21:47:28.000Z,9.50
2018-05-18T21:49:55.510Z,9.53
2018-05-18T21:52:23.031Z,10.60
2018-05-18T21:54:50.535Z,9.50
2018-05-18T21:57:18.065Z,9.53
2018-05-18T21:59:45.596Z,9.73
2018-05-18T22:02:13.107Z,11.57
2018-05-18T22:04:40.592Z,10.30
2018-05-18T22:07:08.097Z,10.67
2018-05-18T22:09:35.610Z,9.90
2018-05-18T22:12:03.125Z,10.53
2018-05-18T22:14:30.637Z,10.20
2018-05-18T22:16:58.211Z,10.93
2018-05-18T22:19:25.730Z,10.40
2018-05-18T22:21:53.996Z,10.70
2018-05-18T22:24:21.487Z,10.70
2018-05-18T22:26:48.979Z,9.57
2018-05-18T22:29:16.510Z,9.60
2018-05-18T22:31:44.014Z,9.07
2018-05-18T22:34:11.507Z,9.57
2018-05-18T22:36:39.048Z,9.30
2018-05-18T22:39:07.322Z,9.80
2018-05-18T22:41:35.577Z,11.70
2018-05-18T22:44:03.121Z,11.37
2018-05-18T22:46:32.179Z,11.57
2018-05-18T22:48:59.688Z,10.13
2018-05-18T22:51:27.198Z,11.23
2018-05-18T22:53:54.705Z,10.40
2018-05-18T22:56:22.215Z,11.50
2018-05-18T22:58:49.718Z,10.57
2018-05-18T23:01:17.241Z,10.63
2018-05-18T23:03:44.742Z,10.60
2018-05-18T23:06:12.228Z,10.87
2018-05-18T23:08:39.742Z,10.87
2018-05-18T23:11:07.262Z,10.30
2018-05-18T23:13:34.772Z,10.83
2018-05-18T23:16:02.337Z,11.40
2018-05-18T23:18:30.592Z,9.97
2018-05-18T23:20:58.094Z,10.40
2018-05-18T23:23:25.583Z,9.53
2018-05-18T23:25:53.733Z,9.20
2018-05-18T23:28:21.244Z,10.83
2018-05-18T23:30:48.805Z,10.57
2018-05-18T23:33:17.104Z,11.00
2018-05-18T23:35:45.379Z,11.73
2018-05-18T23:38:13.647Z,12.87
2018-05-18T23:40:41.959Z,11.70
2018-05-18T23:43:09.452Z,10.90
2018-05-18T23:45:36.937Z,12.07
2018-05-18T23:48:05.228Z,11.80
2018-05-18T23:50:32.736Z,12.07
2018-05-18T23:53:00.309Z,12.37
2018-05-18T23:55:27.753Z,12.17
2018-05-18T23:57:55.417Z,13.63
